createdAt,value
2022-10-11T00:01:14.011Z,8.82
2022-10-11T00:03:59.700Z,11.93
2022-10-11T00:06:45.247Z,10.27
2022-10-11T00:09:30.859Z,11.38
2022-10-11T00:12:15.901Z,12.15
2022-10-11T00:15:02.067Z,12.68
2022-10-11T00:17:47.923Z,8.85
2022-10-11T00:20:33.396Z,8.00
2022-10-11T00:23:18.850Z,10.20
2022-10-11T00:26:07.226Z,8.30
2022-10-11T00:28:53.267Z,13.93
2022-10-11T00:31:39.474Z,9.93
2022-10-11T00:34:24.754Z,8.07
2022-10-11T00:37:09.933Z,11.57
2022-10-11T00:39:55.433Z,9.07
2022-10-11T00:42:41.135Z,9.10
2022-10-11T00:45:26.668Z,10.10
2022-10-11T00:48:21.459Z,6.38
2022-10-11T00:51:18.231Z,8.73
2022-10-11T00:54:04.650Z,6.75
2022-10-11T00:56:54.538Z,10.95
2022-10-11T00:59:47.974Z,5.93
2022-10-11T01:02:33.652Z,5.93
2022-10-11T01:05:29.765Z,8.82
2022-10-11T01:08:15.432Z,12.70
2022-10-11T01:11:01.274Z,4.78
2022-10-11T01:14:05.171Z,5.57
2022-10-11T01:17:22.536Z,5.93
2022-10-11T01:20:32.839Z,8.30
2022-10-11T01:23:52.155Z,5.75
2022-10-11T01:29:45.604Z,5.45
2022-10-11T01:32:52.541Z,7.13
2022-10-11T01:35:37.932Z,8.52
2022-10-11T01:38:46.861Z,9.48
2022-10-11T01:41:38.994Z,4.38
2022-10-11T01:44:26.960Z,5.32
2022-10-11T01:47:12.560Z,6.45
2022-10-11T01:50:01.554Z,8.18
2022-10-11T01:52:47.730Z,10.63
2022-10-11T01:55:51.808Z,8.75
2022-10-11T01:59:26.119Z,9.88
2022-10-11T02:02:49.117Z,7.05
2022-10-11T02:05:59.921Z,8.48
2022-10-11T02:09:04.386Z,6.80
2022-10-11T02:11:57.275Z,6.65
2022-10-11T02:14:46.498Z,8.25
2022-10-11T02:17:36.429Z,6.55
2022-10-11T02:20:26.450Z,6.65
2022-10-11T02:23:23.894Z,8.95
2022-10-11T02:26:12.814Z,10.48
2022-10-11T02:29:01.390Z,11.95
2022-10-11T02:31:47.530Z,8.57
2022-10-11T02:34:40.005Z,11.27
2022-10-11T02:37:32.871Z,13.68
2022-10-11T02:40:24.974Z,12.68
2022-10-11T02:43:17.771Z,16.52
2022-10-11T02:46:05.413Z,14.00
2022-10-11T02:48:51.547Z,14.13
2022-10-11T02:51:37.002Z,18.67
2022-10-11T02:54:24.579Z,21.30
2022-10-11T02:57:10.235Z,12.00
2022-10-11T02:59:55.545Z,18.55
2022-10-11T03:02:41.185Z,12.07
2022-10-11T03:05:27.007Z,14.55
2022-10-11T03:08:14.527Z,10.95
2022-10-11T03:11:00.256Z,15.77
2022-10-11T03:13:45.458Z,12.13
2022-10-11T03:16:31.224Z,15.90
2022-10-11T03:19:19.259Z,10.23
2022-10-11T03:22:05.641Z,12.13
2022-10-11T03:24:51.144Z,24.70
2022-10-11T03:27:37.314Z,13.65
2022-10-11T03:30:22.530Z,17.67
2022-10-11T03:33:08.049Z,19.83
2022-10-11T03:35:53.394Z,12.73
2022-10-11T03:38:39.219Z,14.60
2022-10-11T03:41:24.982Z,15.93
2022-10-11T03:44:10.647Z,14.23
2022-10-11T03:46:56.073Z,22.80
2022-10-11T03:49:43.752Z,10.40
2022-10-11T03:52:29.399Z,15.35
2022-10-11T03:55:15.134Z,14.35
2022-10-11T03:58:00.718Z,16.50
2022-10-11T04:00:46.534Z,16.95
2022-10-11T04:03:32.033Z,17.98
2022-10-11T04:06:17.504Z,14.57
2022-10-11T04:09:03.299Z,11.82
2022-10-11T04:11:48.655Z,16.98
2022-10-11T04:14:34.123Z,11.43
2022-10-11T04:17:19.539Z,15.73
2022-10-11T04:20:06.268Z,17.92
2022-10-11T04:22:51.606Z,10.35
2022-10-11T04:25:39.714Z,12.43
2022-10-11T04:28:25.280Z,19.67
2022-10-11T04:31:11.104Z,14.05
2022-10-11T04:33:57.281Z,16.73
2022-10-11T04:36:46.290Z,17.88
2022-10-11T04:39:34.285Z,15.27
2022-10-11T04:42:20.703Z,19.65
2022-10-11T04:45:06.587Z,22.85
2022-10-11T04:47:52.148Z,11.43
2022-10-11T04:50:37.410Z,14.82
2022-10-11T04:53:26.073Z,13.02
2022-10-11T04:56:12.038Z,18.60
2022-10-11T04:58:57.351Z,15.88
2022-10-11T05:01:42.974Z,14.95
2022-10-11T05:04:28.290Z,13.23
2022-10-11T05:07:13.847Z,18.55
2022-10-11T05:09:59.171Z,16.63
2022-10-11T05:12:44.616Z,16.02
2022-10-11T05:15:30.245Z,16.95
2022-10-11T05:18:15.875Z,21.67
2022-10-11T05:21:06.662Z,21.48
2022-10-11T05:23:55.350Z,24.50
2022-10-11T05:26:40.921Z,19.15
2022-10-11T05:29:26.682Z,17.95
2022-10-11T05:32:11.993Z,17.42
2022-10-11T05:34:57.834Z,19.73
2022-10-11T05:37:42.927Z,18.20
2022-10-11T05:40:28.484Z,15.82
2022-10-11T05:43:13.777Z,15.10
2022-10-11T05:45:59.161Z,27.70
2022-10-11T05:48:44.430Z,25.75
2022-10-11T05:51:29.912Z,27.20
2022-10-11T05:54:15.344Z,29.08
2022-10-11T05:57:00.828Z,16.08
2022-10-11T05:59:46.301Z,18.10
2022-10-11T06:02:31.670Z,14.45
2022-10-11T06:05:17.293Z,16.13
2022-10-11T06:08:04.173Z,17.83
2022-10-11T06:10:49.564Z,16.63
2022-10-11T06:13:36.054Z,20.73
2022-10-11T06:16:21.848Z,18.75
2022-10-11T06:19:07.747Z,19.83
2022-10-11T06:21:53.464Z,30.13
2022-10-11T06:24:38.827Z,19.55
2022-10-11T06:27:24.398Z,22.05
2022-10-11T06:30:10.275Z,16.85
2022-10-11T06:32:55.596Z,18.85
2022-10-11T06:35:41.166Z,17.13
2022-10-11T06:38:26.953Z,20.70
2022-10-11T06:41:23.957Z,17.08
2022-10-11T06:44:14.426Z,18.70
2022-10-11T06:46:59.938Z,17.73
2022-10-11T06:49:45.338Z,26.15
2022-10-11T06:52:30.639Z,17.65
2022-10-11T06:55:16.076Z,17.85
2022-10-11T06:58:01.480Z,21.23
2022-10-11T07:00:46.878Z,18.33
2022-10-11T07:03:32.598Z,18.15
2022-10-11T07:06:21.243Z,21.73
2022-10-11T07:09:07.470Z,17.33
2022-10-11T07:11:52.981Z,20.58
2022-10-11T07:14:38.474Z,21.23
2022-10-11T07:17:23.979Z,21.67
2022-10-11T07:20:10.009Z,21.83
2022-10-11T07:22:55.429Z,23.50
2022-10-11T07:25:41.083Z,22.70
2022-10-11T07:28:27.218Z,19.70
2022-10-11T07:31:16.754Z,23.38
2022-10-11T07:34:02.408Z,19.00
2022-10-11T07:36:47.821Z,29.13
2022-10-11T07:39:33.157Z,28.33
2022-10-11T07:42:18.631Z,22.55
2022-10-11T07:45:04.632Z,21.35
2022-10-11T07:47:50.304Z,30.67
2022-10-11T07:50:35.881Z,26.92
2022-10-11T07:53:21.446Z,27.55
2022-10-11T07:56:08.687Z,33.33
2022-10-11T07:59:00.408Z,117.22
2022-10-11T08:01:45.862Z,48.15
2022-10-11T08:04:31.714Z,56.67
2022-10-11T08:07:17.280Z,57.95
2022-10-11T08:10:02.809Z,40.80
2022-10-11T08:12:48.364Z,34.05
2022-10-11T08:15:33.614Z,32.92
2022-10-11T08:18:19.207Z,22.33
2022-10-11T08:21:09.694Z,18.25
2022-10-11T08:23:55.449Z,22.00
2022-10-11T08:26:41.540Z,21.38
2022-10-11T08:29:27.249Z,24.95
2022-10-11T08:32:13.073Z,26.58
2022-10-11T08:34:58.410Z,29.60
2022-10-11T08:37:43.859Z,21.90
2022-10-11T08:40:34.270Z,22.30
2022-10-11T08:43:45.700Z,20.70
2022-10-11T08:46:34.833Z,28.17
2022-10-11T08:49:24.549Z,34.20
2022-10-11T08:52:21.050Z,32.15
2022-10-11T08:55:15.810Z,27.15
2022-10-11T08:58:02.126Z,21.65
2022-10-11T09:00:50.114Z,22.48
2022-10-11T09:03:42.438Z,24.20
2022-10-11T09:07:00.184Z,23.33
2022-10-11T09:10:17.905Z,18.00
2022-10-11T09:13:16.401Z,19.10
2022-10-11T09:16:17.712Z,26.15
2022-10-11T09:19:12.320Z,24.10
2022-10-11T09:21:57.407Z,21.20
2022-10-11T09:25:10.075Z,21.00
2022-10-11T09:28:29.368Z,24.02
2022-10-11T09:31:15.959Z,22.33
2022-10-11T09:34:11.212Z,19.40
2022-10-11T09:37:36.839Z,25.38
2022-10-11T09:40:36.114Z,21.30
2022-10-11T09:43:21.986Z,22.95
2022-10-11T09:46:22.644Z,16.83
2022-10-11T09:49:12.584Z,24.33
2022-10-11T09:52:00.810Z,20.58
2022-10-11T09:54:54.282Z,16.85
2022-10-11T09:57:40.338Z,18.70
2022-10-11T10:00:28.766Z,24.25
2022-10-11T10:03:27.811Z,20.73
2022-10-11T10:06:23.312Z,24.13
2022-10-11T10:09:30.175Z,18.05
2022-10-11T10:12:22.749Z,19.08
2022-10-11T10:15:19.155Z,23.85
2022-10-11T10:18:10.613Z,18.02
2022-10-11T10:20:59.647Z,14.18
2022-10-11T10:23:45.129Z,22.35
2022-10-11T10:26:32.320Z,16.33
2022-10-11T10:29:18.733Z,15.85
2022-10-11T10:32:21.328Z,18.42
2022-10-11T10:35:16.869Z,18.83
2022-10-11T10:38:14.162Z,18.52
2022-10-11T10:41:19.058Z,21.67
2022-10-11T10:44:04.654Z,23.45
2022-10-11T10:47:13.426Z,18.10
2022-10-11T10:50:04.808Z,18.23
2022-10-11T10:52:53.206Z,20.27
2022-10-11T10:55:45.152Z,19.55
2022-10-11T10:58:40.235Z,17.95
2022-10-11T11:01:32.381Z,16.55
2022-10-11T11:04:26.769Z,18.38
2022-10-11T11:07:31.410Z,18.00
2022-10-11T11:10:25.494Z,22.10
2022-10-11T11:13:19.134Z,17.60
2022-10-11T11:16:35.744Z,14.63
2022-10-11T11:19:50.486Z,17.75
2022-10-11T11:22:48.888Z,17.67
2022-10-11T11:25:51.618Z,20.10
2022-10-11T11:28:42.897Z,15.98
2022-10-11T11:31:34.388Z,16.15
2022-10-11T11:35:01.294Z,15.80
2022-10-11T11:37:48.633Z,17.63
2022-10-11T11:40:37.362Z,15.73
2022-10-11T11:43:32.877Z,12.93
2022-10-11T11:46:27.395Z,15.23
2022-10-11T11:49:33.746Z,19.20
2022-10-11T11:52:33.720Z,16.13
2022-10-11T11:55:42.362Z,17.13
2022-10-11T11:58:34.896Z,17.60
2022-10-11T12:01:36.087Z,13.70
2022-10-11T12:04:38.155Z,17.27
2022-10-11T12:07:27.243Z,29.67
2022-10-11T12:10:27.972Z,14.50
2022-10-11T12:13:32.157Z,15.80
2022-10-11T12:16:18.381Z,17.27
2022-10-11T12:19:04.187Z,22.45
2022-10-11T12:22:27.814Z,23.27
2022-10-11T12:25:22.590Z,25.35
2022-10-11T12:28:42.243Z,25.98
2022-10-11T12:31:31.102Z,24.33
2022-10-11T12:34:34.574Z,18.48
2022-10-11T12:37:20.217Z,17.30
2022-10-11T12:40:36.058Z,23.17
2022-10-11T12:43:26.425Z,14.93
2022-10-11T12:46:29.741Z,15.73
2022-10-11T12:49:31.276Z,52.65
2022-10-11T12:52:16.764Z,23.23
2022-10-11T12:55:21.013Z,17.10
2022-10-11T12:58:29.319Z,76.70
2022-10-11T13:01:23.371Z,72.97
2022-10-11T13:04:11.855Z,32.63
2022-10-11T13:07:06.718Z,43.65
2022-10-11T13:09:54.061Z,48.97
2022-10-11T13:12:43.525Z,30.37
2022-10-11T13:15:29.188Z,29.70
2022-10-11T13:18:17.576Z,31.08
2022-10-11T13:21:14.906Z,20.50
2022-10-11T13:24:04.757Z,60.17
2022-10-11T13:26:52.787Z,33.83
2022-10-11T13:29:45.462Z,56.70
2022-10-11T13:32:32.039Z,16.85
2022-10-11T13:35:24.950Z,24.77
2022-10-11T13:38:30.871Z,40.75
2022-10-11T13:41:16.171Z,61.25
2022-10-11T13:44:03.354Z,38.17
2022-10-11T13:46:49.110Z,57.13
2022-10-11T13:49:37.815Z,68.35
2022-10-11T13:52:24.359Z,30.08
2022-10-11T13:55:22.339Z,45.15
2022-10-11T13:58:18.867Z,31.40
2022-10-11T14:01:16.723Z,28.23
2022-10-11T14:04:08.478Z,71.82
2022-10-11T14:06:58.637Z,26.30
2022-10-11T14:09:47.149Z,28.67
2022-10-11T14:12:43.241Z,17.20
2022-10-11T14:15:33.029Z,19.52
2022-10-11T14:18:37.609Z,20.13
2022-10-11T14:21:33.519Z,21.20
2022-10-11T14:24:21.557Z,18.02
2022-10-11T14:27:09.973Z,20.95
2022-10-11T14:30:20.243Z,20.35
2022-10-11T14:33:02.657Z,30.73
2022-10-11T14:35:52.206Z,21.77
2022-10-11T14:38:37.278Z,24.00
2022-10-11T14:41:22.857Z,29.30
2022-10-11T14:44:08.470Z,25.05
2022-10-11T14:46:54.687Z,22.50
2022-10-11T14:49:40.566Z,25.88
2022-10-11T14:52:25.823Z,20.98
2022-10-11T14:55:11.159Z,20.50
2022-10-11T14:57:57.004Z,19.85
2022-10-11T15:00:42.500Z,17.67
2022-10-11T15:03:27.805Z,24.90
2022-10-11T15:06:29.984Z,24.40
2022-10-11T15:09:17.094Z,19.58
2022-10-11T15:12:02.328Z,31.67
2022-10-11T15:14:47.763Z,32.20
2022-10-11T15:17:33.447Z,28.05
2022-10-11T15:20:37.862Z,28.77
2022-10-11T15:23:22.987Z,22.60
2022-10-11T15:26:14.042Z,18.20
2022-10-11T15:29:00.088Z,21.23
2022-10-11T15:31:46.559Z,20.05
2022-10-11T15:34:32.160Z,21.55
2022-10-11T15:37:17.770Z,22.27
2022-10-11T15:40:14.193Z,19.33
2022-10-11T15:43:00.098Z,23.13
2022-10-11T15:45:45.558Z,19.20
2022-10-11T15:48:32.762Z,23.55
2022-10-11T15:51:18.186Z,17.50
2022-10-11T15:54:03.842Z,22.75
2022-10-11T15:56:49.405Z,22.45
2022-10-11T15:59:34.797Z,25.13
2022-10-11T16:02:20.239Z,23.73
2022-10-11T16:05:05.980Z,24.58
2022-10-11T16:07:52.154Z,23.05
2022-10-11T16:10:38.150Z,30.85
2022-10-11T16:13:23.725Z,21.75
2022-10-11T16:16:11.567Z,22.45
2022-10-11T16:18:57.321Z,28.05
2022-10-11T16:21:42.742Z,31.75
2022-10-11T16:24:28.142Z,21.98
2022-10-11T16:27:17.964Z,25.50
2022-10-11T16:30:05.253Z,23.23
2022-10-11T16:32:50.650Z,20.55
2022-10-11T16:35:36.213Z,22.20
2022-10-11T16:38:21.489Z,25.30
2022-10-11T16:41:07.447Z,22.48
2022-10-11T16:43:54.884Z,23.48
2022-10-11T16:46:40.004Z,24.13
2022-10-11T16:49:28.180Z,29.20
2022-10-11T16:52:14.234Z,75.72
2022-10-11T16:54:59.702Z,69.53
2022-10-11T16:57:45.148Z,42.33
2022-10-11T17:00:30.737Z,62.25
2022-10-11T17:03:16.135Z,42.35
2022-10-11T17:06:01.562Z,36.67
2022-10-11T17:08:47.024Z,26.88
2022-10-11T17:11:33.162Z,28.70
2022-10-11T17:14:18.773Z,31.83
2022-10-11T17:17:05.453Z,30.15
2022-10-11T17:19:50.697Z,30.50
2022-10-11T17:22:36.080Z,34.03
2022-10-11T17:25:21.707Z,25.92
2022-10-11T17:28:07.198Z,26.58
2022-10-11T17:30:54.908Z,28.67
2022-10-11T17:33:40.687Z,27.48
2022-10-11T17:36:30.663Z,26.33
2022-10-11T17:39:19.225Z,26.98
2022-10-11T17:42:07.477Z,26.67
2022-10-11T17:44:53.117Z,27.80
2022-10-11T17:47:38.491Z,27.17
2022-10-11T17:50:23.990Z,34.15
2022-10-11T17:53:09.432Z,36.00
2022-10-11T17:55:57.061Z,32.30
2022-10-11T17:58:42.833Z,40.05
2022-10-11T18:01:29.579Z,56.55
2022-10-11T18:04:16.974Z,49.28
2022-10-11T18:07:02.434Z,42.45
2022-10-11T18:09:47.872Z,42.80
2022-10-11T18:12:33.345Z,42.90
2022-10-11T18:15:20.878Z,52.25
2022-10-11T18:18:07.329Z,55.45
2022-10-11T18:20:52.809Z,33.35
2022-10-11T18:23:39.058Z,34.28
2022-10-11T18:26:28.006Z,26.10
2022-10-11T18:29:15.990Z,23.60
2022-10-11T18:32:01.324Z,26.58
2022-10-11T18:34:47.349Z,28.58
2022-10-11T18:37:32.725Z,27.70
2022-10-11T18:40:18.116Z,25.67
2022-10-11T18:43:03.873Z,25.75
2022-10-11T18:45:49.569Z,29.20
2022-10-11T18:48:40.063Z,27.15
2022-10-11T18:51:31.484Z,28.98
2022-10-11T18:54:21.144Z,31.98
2022-10-11T18:57:07.047Z,26.90
2022-10-11T18:59:53.520Z,24.85
2022-10-11T19:02:38.813Z,30.77
2022-10-11T19:05:24.289Z,32.55
2022-10-11T19:08:10.010Z,36.92
2022-10-11T19:10:55.684Z,29.40
2022-10-11T19:13:41.759Z,34.20
2022-10-11T19:16:29.904Z,27.05
2022-10-11T19:19:16.255Z,32.28
2022-10-11T19:22:03.441Z,34.53
2022-10-11T19:24:48.718Z,29.75
2022-10-11T19:27:34.274Z,31.50
2022-10-11T19:30:20.161Z,29.38
2022-10-11T19:33:05.599Z,38.67
2022-10-11T19:35:55.330Z,37.78
2022-10-11T19:38:45.056Z,37.30
2022-10-11T19:41:30.888Z,32.00
2022-10-11T19:44:16.915Z,31.98
2022-10-11T19:47:05.439Z,38.55
2022-10-11T19:49:51.201Z,36.90
2022-10-11T19:52:40.353Z,35.83
2022-10-11T19:55:27.943Z,33.13
2022-10-11T19:58:13.515Z,31.92
2022-10-11T20:01:07.038Z,28.20
2022-10-11T20:03:57.584Z,29.52
2022-10-11T20:06:43.290Z,36.72
2022-10-11T20:09:30.540Z,30.95
2022-10-11T20:12:16.552Z,27.95
2022-10-11T20:15:01.967Z,36.85
2022-10-11T20:17:50.387Z,37.10
2022-10-11T20:20:36.244Z,40.40
2022-10-11T20:23:26.626Z,48.03
2022-10-11T20:26:18.644Z,46.45
2022-10-11T20:29:04.128Z,51.15
2022-10-11T20:31:49.789Z,58.28
2022-10-11T20:34:39.714Z,45.83
2022-10-11T20:37:25.303Z,31.08
2022-10-11T20:40:12.013Z,34.40
2022-10-11T20:42:57.194Z,30.02
2022-10-11T20:45:42.599Z,30.63
2022-10-11T20:48:28.739Z,28.83
2022-10-11T20:51:14.449Z,37.65
2022-10-11T20:54:02.087Z,33.85
2022-10-11T20:56:48.210Z,34.72
2022-10-11T20:59:33.819Z,34.38
2022-10-11T21:02:19.264Z,37.08
2022-10-11T21:05:05.769Z,38.00
2022-10-11T21:07:53.143Z,39.13
2022-10-11T21:10:39.516Z,37.80
2022-10-11T21:13:24.671Z,35.97
2022-10-11T21:16:15.540Z,38.25
2022-10-11T21:19:02.474Z,32.50
2022-10-11T21:21:52.693Z,36.67
2022-10-11T21:24:39.010Z,34.88
2022-10-11T21:27:28.034Z,35.50
2022-10-11T21:30:13.607Z,34.58
2022-10-11T21:32:59.168Z,41.15
2022-10-11T21:35:44.956Z,34.55
2022-10-11T21:38:30.495Z,31.45
2022-10-11T21:41:18.795Z,33.05
2022-10-11T21:44:05.595Z,32.97
2022-10-11T21:47:07.801Z,28.02
2022-10-11T21:49:53.713Z,35.45
2022-10-11T21:52:39.154Z,34.28
2022-10-11T21:55:24.691Z,39.72
2022-10-11T21:58:09.674Z,31.92
2022-10-11T22:00:55.389Z,42.60
2022-10-11T22:03:40.787Z,47.00
2022-10-11T22:06:25.936Z,41.88
2022-10-11T22:09:11.900Z,50.60
2022-10-11T22:11:57.530Z,46.17
2022-10-11T22:14:43.101Z,49.47
2022-10-11T22:17:28.754Z,50.75
2022-10-11T22:20:14.915Z,44.13
2022-10-11T22:23:00.177Z,36.08
2022-10-11T22:25:46.256Z,40.85
2022-10-11T22:28:31.682Z,35.65
2022-10-11T22:31:19.008Z,31.27
2022-10-11T22:34:04.171Z,30.97
2022-10-11T22:36:49.545Z,25.90
2022-10-11T22:39:35.030Z,36.28
2022-10-11T22:42:24.180Z,37.65
2022-10-11T22:45:13.007Z,31.77
2022-10-11T22:47:58.501Z,33.88
2022-10-11T22:50:44.097Z,34.30
2022-10-11T22:53:30.596Z,32.60
2022-10-11T22:56:16.413Z,34.67
2022-10-11T22:59:02.026Z,32.70
2022-10-11T23:01:47.561Z,33.75
2022-10-11T23:04:32.907Z,35.55
2022-10-11T23:07:20.761Z,37.40
2022-10-11T23:12:51.396Z,25.80
2022-10-11T23:15:40.635Z,34.97
2022-10-11T23:18:26.323Z,31.15
2022-10-11T23:21:11.476Z,35.35
2022-10-11T23:23:57.039Z,29.00
2022-10-11T23:26:42.978Z,37.53
2022-10-11T23:29:30.745Z,34.75
2022-10-11T23:32:16.231Z,31.42
2022-10-11T23:35:01.629Z,30.70
2022-10-11T23:37:47.047Z,27.15
2022-10-11T23:40:32.521Z,29.70
2022-10-11T23:43:18.274Z,28.95
2022-10-11T23:46:03.677Z,21.13
2022-10-11T23:48:48.865Z,27.15
2022-10-11T23:51:34.813Z,21.02
2022-10-11T23:54:20.182Z,22.83
2022-10-11T23:57:05.830Z,26.48
2022-10-11T23:59:51.383Z,24.23
